VLG2485 LESO-LEBL
Flight info
| Callsign | VLG2485 |
|---|---|
| Flight time | 0h 45m |
| Altitude | 29000 |
| Route | PPN M601 GRAUS |
| Aircraft | A319/M-SDFGHILORVWXY/LB1 |
Departure
| Time | 2026-05-01 08:30 |
|---|---|
| Airport | San Sebastián Airport (LESO) |
Arrival
| Time | 2026-05-01 09:15 |
|---|---|
| Airport | Josep Tarradellas Barcelona-El Prat Airport (LEBL) |
| Time | Latitude | Longitude | Altitude | Speed | Heading |
|---|---|---|---|---|---|
| 2026-05-01 07:57 | 43.35604 | -1.79267 | 17 ft | 0 kts | 39° |
| 2026-05-01 08:23 | 43.35606 | -1.79264 | 17 ft | 0 kts | 45° |
| 2026-05-01 08:24 | 43.35606 | -1.79263 | 17 ft | 0 kts | 50° |
| 2026-05-01 08:24 | 43.35605 | -1.79261 | 17 ft | 0 kts | 68° |
| 2026-05-01 08:24 | 43.35602 | -1.79257 | 17 ft | 1 kts | 118° |
| 2026-05-01 08:24 | 43.35597 | -1.79259 | 17 ft | 1 kts | 173° |
| 2026-05-01 08:25 | 43.35595 | -1.79262 | 17 ft | 1 kts | 204° |
| 2026-05-01 08:25 | 43.35580 | -1.79275 | 19 ft | 4 kts | 213° |
| 2026-05-01 08:25 | 43.35566 | -1.79285 | 17 ft | 2 kts | 199° |
| 2026-05-01 08:25 | 43.35559 | -1.79285 | 17 ft | 0 kts | 177° |
| 2026-05-01 08:26 | 43.35536 | -1.79268 | 18 ft | 9 kts | 143° |
| 2026-05-01 08:26 | 43.35556 | -1.79170 | 18 ft | 15 kts | 38° |
| 2026-05-01 08:27 | 43.35637 | -1.79080 | 18 ft | 15 kts | 39° |
| 2026-05-01 08:27 | 43.35722 | -1.78984 | 18 ft | 16 kts | 39° |
| 2026-05-01 08:27 | 43.35807 | -1.78891 | 20 ft | 15 kts | 39° |
| 2026-05-01 08:27 | 43.35892 | -1.78797 | 20 ft | 16 kts | 39° |
| 2026-05-01 08:28 | 43.35977 | -1.78702 | 21 ft | 16 kts | 39° |
| 2026-05-01 08:28 | 43.36060 | -1.78611 | 22 ft | 15 kts | 38° |
| 2026-05-01 08:28 | 43.36144 | -1.78518 | 23 ft | 15 kts | 39° |
| 2026-05-01 08:28 | 43.36205 | -1.78421 | 25 ft | 13 kts | 71° |
| 2026-05-01 08:29 | 43.36244 | -1.78414 | 24 ft | 7 kts | 265° |
| 2026-05-01 08:29 | 43.36210 | -1.78446 | 24 ft | 6 kts | 217° |
| 2026-05-01 08:29 | 43.36206 | -1.78451 | 26 ft | 0 kts | 218° |
| 2026-05-01 08:30 | 43.36074 | -1.78597 | 22 ft | 68 kts | 219° |
| 2026-05-01 08:30 | 43.35466 | -1.79259 | 27 ft | 151 kts | 218° |
| 2026-05-01 08:30 | 43.34624 | -1.80206 | 705 ft | 157 kts | 219° |
| 2026-05-01 08:30 | 43.33845 | -1.81264 | 1545 ft | 159 kts | 229° |
| 2026-05-01 08:31 | 43.33105 | -1.82412 | 2253 ft | 165 kts | 227° |
| 2026-05-01 08:31 | 43.32292 | -1.83658 | 2652 ft | 187 kts | 226° |
| 2026-05-01 08:31 | 43.31372 | -1.85067 | 3014 ft | 209 kts | 226° |
| 2026-05-01 08:31 | 43.30338 | -1.86651 | 3423 ft | 235 kts | 226° |
| 2026-05-01 08:32 | 43.29199 | -1.88397 | 4081 ft | 252 kts | 226° |
| 2026-05-01 08:32 | 43.28215 | -1.90441 | 5020 ft | 261 kts | 238° |
| 2026-05-01 08:32 | 43.27351 | -1.92667 | 5738 ft | 266 kts | 239° |
| 2026-05-01 08:32 | 43.26271 | -1.94746 | 6575 ft | 270 kts | 222° |
| 2026-05-01 08:33 | 43.24694 | -1.96119 | 7482 ft | 272 kts | 199° |
| 2026-05-01 08:33 | 43.22828 | -1.96517 | 8403 ft | 275 kts | 176° |
| 2026-05-01 08:33 | 43.20979 | -1.95852 | 9333 ft | 279 kts | 154° |
| 2026-05-01 08:33 | 43.19445 | -1.94211 | 10253 ft | 284 kts | 134° |
| 2026-05-01 08:34 | 43.17993 | -1.92259 | 10686 ft | 304 kts | 143° |
| 2026-05-01 08:34 | 43.16237 | -1.90485 | 11142 ft | 321 kts | 145° |
| 2026-05-01 08:34 | 43.14415 | -1.88656 | 11992 ft | 327 kts | 145° |
| 2026-05-01 08:34 | 43.13156 | -1.87509 | 12544 ft | 330 kts | 152° |
| 2026-05-01 08:35 | 43.11072 | -1.86175 | 13358 ft | 333 kts | 159° |
| 2026-05-01 08:35 | 43.08874 | -1.85127 | 14135 ft | 336 kts | 164° |
| 2026-05-01 08:35 | 43.05893 | -1.83851 | 15074 ft | 341 kts | 163° |
| 2026-05-01 08:35 | 43.03633 | -1.82845 | 15791 ft | 343 kts | 164° |
| 2026-05-01 08:36 | 43.01350 | -1.81836 | 16504 ft | 346 kts | 163° |
| 2026-05-01 08:36 | 42.99031 | -1.80832 | 17118 ft | 353 kts | 164° |
| 2026-05-01 08:36 | 42.97439 | -1.80156 | 17544 ft | 356 kts | 165° |
| 2026-05-01 08:36 | 42.95054 | -1.79157 | 18208 ft | 361 kts | 165° |
| 2026-05-01 08:37 | 42.92640 | -1.78157 | 18808 ft | 365 kts | 165° |
| 2026-05-01 08:37 | 42.90199 | -1.77153 | 19398 ft | 368 kts | 165° |
| 2026-05-01 08:37 | 42.87737 | -1.76141 | 20000 ft | 371 kts | 165° |
| 2026-05-01 08:37 | 42.85253 | -1.75116 | 20605 ft | 374 kts | 165° |
| 2026-05-01 08:38 | 42.82748 | -1.74081 | 21211 ft | 378 kts | 165° |
| 2026-05-01 08:38 | 42.80223 | -1.73038 | 21802 ft | 381 kts | 165° |
| 2026-05-01 08:38 | 42.77689 | -1.71910 | 22384 ft | 386 kts | 159° |
| 2026-05-01 08:38 | 42.75308 | -1.70173 | 22946 ft | 392 kts | 147° |
| 2026-05-01 08:39 | 42.73214 | -1.67752 | 23517 ft | 399 kts | 135° |
| 2026-05-01 08:39 | 42.71522 | -1.64731 | 24020 ft | 405 kts | 122° |
| 2026-05-01 08:39 | 42.70256 | -1.61285 | 24479 ft | 410 kts | 117° |
| 2026-05-01 08:39 | 42.69036 | -1.57771 | 24930 ft | 412 kts | 117° |
| 2026-05-01 08:40 | 42.66547 | -1.50701 | 25780 ft | 418 kts | 118° |
| 2026-05-01 08:40 | 42.65283 | -1.47132 | 26173 ft | 421 kts | 118° |
| 2026-05-01 08:40 | 42.64005 | -1.43530 | 26591 ft | 424 kts | 118° |
| 2026-05-01 08:41 | 42.62721 | -1.39914 | 27019 ft | 427 kts | 118° |
| 2026-05-01 08:41 | 42.61425 | -1.36275 | 27432 ft | 429 kts | 118° |
| 2026-05-01 08:41 | 42.60119 | -1.32615 | 27847 ft | 432 kts | 119° |
| 2026-05-01 08:41 | 42.58806 | -1.28926 | 28265 ft | 436 kts | 118° |
| 2026-05-01 08:42 | 42.57487 | -1.25207 | 28722 ft | 439 kts | 119° |
| 2026-05-01 08:42 | 42.56159 | -1.21460 | 29150 ft | 442 kts | 119° |
| 2026-05-01 08:42 | 42.55057 | -1.18355 | 29472 ft | 444 kts | 119° |
| 2026-05-01 08:42 | 42.53707 | -1.14573 | 29853 ft | 447 kts | 119° |
| 2026-05-01 08:43 | 42.52346 | -1.10769 | 30156 ft | 451 kts | 119° |
| 2026-05-01 08:43 | 42.50984 | -1.06968 | 30218 ft | 442 kts | 119° |
| 2026-05-01 08:43 | 42.49670 | -1.03286 | 30208 ft | 428 kts | 120° |
| 2026-05-01 08:43 | 42.48386 | -0.99688 | 30208 ft | 422 kts | 120° |
| 2026-05-01 08:44 | 42.45829 | -0.92562 | 30212 ft | 420 kts | 120° |
| 2026-05-01 08:44 | 42.43270 | -0.85468 | 30216 ft | 420 kts | 120° |
| 2026-05-01 08:45 | 42.40709 | -0.78366 | 30215 ft | 420 kts | 120° |
| 2026-05-01 08:45 | 42.38141 | -0.71269 | 30212 ft | 420 kts | 120° |
| 2026-05-01 08:46 | 42.35562 | -0.64175 | 30215 ft | 420 kts | 120° |
| 2026-05-01 08:46 | 42.33018 | -0.57185 | 30225 ft | 420 kts | 120° |
| 2026-05-01 08:47 | 42.30436 | -0.50103 | 30215 ft | 420 kts | 120° |
| 2026-05-01 08:47 | 42.27853 | -0.43029 | 30225 ft | 420 kts | 120° |
| 2026-05-01 08:48 | 42.25266 | -0.35952 | 30221 ft | 420 kts | 120° |
| 2026-05-01 08:48 | 42.22670 | -0.28891 | 30234 ft | 420 kts | 120° |
| 2026-05-01 08:49 | 42.20073 | -0.21841 | 30227 ft | 420 kts | 120° |
| 2026-05-01 08:49 | 42.17473 | -0.14792 | 30218 ft | 420 kts | 120° |
| 2026-05-01 08:50 | 42.14871 | -0.07749 | 30223 ft | 420 kts | 120° |
| 2026-05-01 08:50 | 42.12257 | -0.00711 | 30229 ft | 420 kts | 121° |
| 2026-05-01 08:51 | 42.09581 | 0.06450 | 30132 ft | 439 kts | 120° |
| 2026-05-01 08:51 | 42.08207 | 0.10122 | 29617 ft | 436 kts | 120° |
| 2026-05-01 08:51 | 42.06839 | 0.13788 | 28623 ft | 441 kts | 120° |
| 2026-05-01 08:52 | 42.05457 | 0.17492 | 27878 ft | 441 kts | 120° |
| 2026-05-01 08:52 | 42.04103 | 0.21130 | 27559 ft | 431 kts | 120° |
| 2026-05-01 08:52 | 42.02767 | 0.24719 | 26959 ft | 428 kts | 120° |
| 2026-05-01 08:52 | 42.01434 | 0.28278 | 26488 ft | 423 kts | 120° |
| 2026-05-01 08:53 | 42.00114 | 0.31790 | 25991 ft | 419 kts | 120° |
| 2026-05-01 08:53 | 41.98577 | 0.35065 | 25518 ft | 410 kts | 132° |
| 2026-05-01 08:53 | 41.96653 | 0.37747 | 25107 ft | 399 kts | 144° |
| 2026-05-01 08:53 | 41.94416 | 0.39813 | 24958 ft | 383 kts | 154° |
| 2026-05-01 08:54 | 41.92058 | 0.41378 | 24651 ft | 375 kts | 158° |
| 2026-05-01 08:54 | 41.89714 | 0.42883 | 24319 ft | 371 kts | 158° |
| 2026-05-01 08:54 | 41.87397 | 0.44372 | 24068 ft | 368 kts | 158° |
| 2026-05-01 08:54 | 41.85090 | 0.45850 | 23806 ft | 367 kts | 158° |
| 2026-05-01 08:55 | 41.82791 | 0.47320 | 23514 ft | 365 kts | 158° |
| 2026-05-01 08:55 | 41.80501 | 0.48786 | 23257 ft | 364 kts | 157° |
| 2026-05-01 08:55 | 41.78217 | 0.50245 | 23002 ft | 363 kts | 157° |
| 2026-05-01 08:55 | 41.75939 | 0.51693 | 22745 ft | 361 kts | 157° |
| 2026-05-01 08:56 | 41.73673 | 0.53132 | 22494 ft | 360 kts | 157° |
| 2026-05-01 08:56 | 41.71417 | 0.54565 | 22242 ft | 358 kts | 157° |
| 2026-05-01 08:56 | 41.69167 | 0.55996 | 21990 ft | 357 kts | 157° |
| 2026-05-01 08:56 | 41.66928 | 0.57421 | 21738 ft | 356 kts | 157° |
| 2026-05-01 08:57 | 41.64696 | 0.58838 | 21486 ft | 355 kts | 157° |
| 2026-05-01 08:57 | 41.62470 | 0.60249 | 21243 ft | 353 kts | 157° |
| 2026-05-01 08:57 | 41.60252 | 0.61653 | 20992 ft | 352 kts | 156° |
| 2026-05-01 08:57 | 41.58040 | 0.63053 | 20748 ft | 351 kts | 156° |
| 2026-05-01 08:58 | 41.55865 | 0.64522 | 20513 ft | 351 kts | 150° |
| 2026-05-01 08:58 | 41.53936 | 0.66508 | 20259 ft | 351 kts | 138° |
| 2026-05-01 08:58 | 41.52177 | 0.68757 | 20015 ft | 350 kts | 138° |
| 2026-05-01 08:58 | 41.50417 | 0.70992 | 19775 ft | 348 kts | 138° |
| 2026-05-01 08:59 | 41.48660 | 0.73209 | 19531 ft | 347 kts | 138° |
| 2026-05-01 08:59 | 41.46914 | 0.75416 | 19292 ft | 345 kts | 138° |
| 2026-05-01 08:59 | 41.45175 | 0.77613 | 19048 ft | 345 kts | 138° |
| 2026-05-01 08:59 | 41.43432 | 0.79811 | 18809 ft | 345 kts | 138° |
| 2026-05-01 09:00 | 41.41687 | 0.82009 | 18571 ft | 344 kts | 138° |
| 2026-05-01 09:00 | 41.39952 | 0.84196 | 18306 ft | 343 kts | 138° |
| 2026-05-01 09:00 | 41.38222 | 0.86372 | 18067 ft | 342 kts | 138° |
| 2026-05-01 09:00 | 41.36572 | 0.88650 | 17444 ft | 345 kts | 127° |
| 2026-05-01 09:01 | 41.35535 | 0.91516 | 16749 ft | 344 kts | 106° |
| 2026-05-01 09:01 | 41.35016 | 0.94602 | 16090 ft | 340 kts | 103° |
| 2026-05-01 09:01 | 41.34539 | 0.97628 | 15475 ft | 337 kts | 103° |
| 2026-05-01 09:01 | 41.34065 | 1.00665 | 14846 ft | 334 kts | 102° |
| 2026-05-01 09:02 | 41.33598 | 1.03655 | 14399 ft | 326 kts | 102° |
| 2026-05-01 09:02 | 41.33142 | 1.06563 | 14010 ft | 317 kts | 102° |
| 2026-05-01 09:02 | 41.32694 | 1.09391 | 13602 ft | 308 kts | 102° |
| 2026-05-01 09:02 | 41.32249 | 1.12170 | 13231 ft | 307 kts | 102° |
| 2026-05-01 09:03 | 41.31803 | 1.14947 | 12855 ft | 307 kts | 102° |
| 2026-05-01 09:03 | 41.31360 | 1.17716 | 12477 ft | 306 kts | 102° |
| 2026-05-01 09:03 | 41.30919 | 1.20476 | 12103 ft | 305 kts | 102° |
| 2026-05-01 09:03 | 41.30480 | 1.23229 | 11717 ft | 304 kts | 102° |
| 2026-05-01 09:04 | 41.30043 | 1.25972 | 11333 ft | 303 kts | 102° |
| 2026-05-01 09:04 | 41.29607 | 1.28706 | 10945 ft | 302 kts | 102° |
| 2026-05-01 09:04 | 41.29167 | 1.31436 | 10558 ft | 301 kts | 102° |
| 2026-05-01 09:04 | 41.28729 | 1.34149 | 10157 ft | 298 kts | 102° |
| 2026-05-01 09:05 | 41.28303 | 1.36797 | 9741 ft | 288 kts | 102° |
| 2026-05-01 09:05 | 41.27891 | 1.39351 | 9370 ft | 277 kts | 102° |
| 2026-05-01 09:05 | 41.27494 | 1.41813 | 9009 ft | 269 kts | 102° |
| 2026-05-01 09:05 | 41.27099 | 1.44241 | 8627 ft | 268 kts | 103° |
| 2026-05-01 09:06 | 41.26704 | 1.46657 | 8252 ft | 267 kts | 103° |
| 2026-05-01 09:06 | 41.26313 | 1.49064 | 7869 ft | 266 kts | 102° |
| 2026-05-01 09:06 | 41.25924 | 1.51460 | 7482 ft | 265 kts | 102° |
| 2026-05-01 09:06 | 41.25536 | 1.53842 | 7098 ft | 263 kts | 102° |
| 2026-05-01 09:07 | 41.25150 | 1.56211 | 6707 ft | 262 kts | 103° |
| 2026-05-01 09:07 | 41.24761 | 1.58595 | 6120 ft | 267 kts | 102° |
| 2026-05-01 09:07 | 41.24371 | 1.60977 | 5718 ft | 261 kts | 103° |
| 2026-05-01 09:07 | 41.23987 | 1.63322 | 5261 ft | 260 kts | 102° |
| 2026-05-01 09:08 | 41.23605 | 1.65656 | 4852 ft | 258 kts | 102° |
| 2026-05-01 09:08 | 41.23234 | 1.67915 | 4762 ft | 243 kts | 102° |
| 2026-05-01 09:08 | 41.22885 | 1.70033 | 4682 ft | 227 kts | 102° |
| 2026-05-01 09:08 | 41.22555 | 1.72030 | 4591 ft | 215 kts | 102° |
| 2026-05-01 09:09 | 41.22242 | 1.73920 | 4497 ft | 205 kts | 101° |
| 2026-05-01 09:09 | 41.21942 | 1.75731 | 4413 ft | 196 kts | 101° |
| 2026-05-01 09:09 | 41.21658 | 1.77452 | 4326 ft | 186 kts | 101° |
| 2026-05-01 09:09 | 41.21385 | 1.79101 | 4248 ft | 181 kts | 101° |
| 2026-05-01 09:10 | 41.21115 | 1.80735 | 4174 ft | 181 kts | 101° |
| 2026-05-01 09:10 | 41.21058 | 1.82402 | 3976 ft | 181 kts | 81° |
| 2026-05-01 09:10 | 41.21480 | 1.83962 | 3757 ft | 180 kts | 67° |
| 2026-05-01 09:10 | 41.21998 | 1.85452 | 3527 ft | 180 kts | 67° |
| 2026-05-01 09:11 | 41.22515 | 1.86946 | 3321 ft | 176 kts | 67° |
| 2026-05-01 09:11 | 41.23022 | 1.88414 | 3061 ft | 173 kts | 67° |
| 2026-05-01 09:11 | 41.23516 | 1.89844 | 2837 ft | 168 kts | 66° |
| 2026-05-01 09:11 | 41.24001 | 1.91250 | 2609 ft | 166 kts | 67° |
| 2026-05-01 09:12 | 41.24474 | 1.92622 | 2391 ft | 161 kts | 67° |
| 2026-05-01 09:12 | 41.24934 | 1.93958 | 2179 ft | 157 kts | 66° |
| 2026-05-01 09:12 | 41.25384 | 1.95264 | 1979 ft | 154 kts | 65° |
| 2026-05-01 09:12 | 41.25821 | 1.96534 | 1770 ft | 146 kts | 65° |
| 2026-05-01 09:13 | 41.26225 | 1.97706 | 1579 ft | 134 kts | 66° |
| 2026-05-01 09:13 | 41.26605 | 1.98811 | 1411 ft | 129 kts | 65° |
| 2026-05-01 09:13 | 41.26973 | 1.99882 | 1236 ft | 127 kts | 63° |
| 2026-05-01 09:13 | 41.27342 | 2.00954 | 1068 ft | 128 kts | 64° |
| 2026-05-01 09:14 | 41.27705 | 2.02019 | 901 ft | 125 kts | 64° |
| 2026-05-01 09:14 | 41.28067 | 2.03080 | 701 ft | 126 kts | 65° |
| 2026-05-01 09:14 | 41.28435 | 2.04148 | 517 ft | 128 kts | 67° |
| 2026-05-01 09:14 | 41.28799 | 2.05208 | 334 ft | 124 kts | 67° |
| 2026-05-01 09:15 | 41.29162 | 2.06264 | 198 ft | 124 kts | 66° |
| 2026-05-01 09:15 | 41.29521 | 2.07312 | 51 ft | 124 kts | 66° |
| 2026-05-01 09:15 | 41.29848 | 2.08242 | 21 ft | 91 kts | 66° |
| 2026-05-01 09:15 | 41.30036 | 2.08805 | 21 ft | 42 kts | 66° |
| 2026-05-01 09:16 | 41.30125 | 2.09100 | 17 ft | 29 kts | 79° |
| 2026-05-01 09:16 | 41.30137 | 2.09254 | 15 ft | 13 kts | 92° |
| 2026-05-01 09:16 | 41.30131 | 2.09379 | 15 ft | 14 kts | 99° |
| 2026-05-01 09:17 | 41.30021 | 2.09313 | 17 ft | 12 kts | 245° |
| 2026-05-01 09:17 | 41.29984 | 2.09206 | 17 ft | 13 kts | 245° |
| 2026-05-01 09:17 | 41.29906 | 2.08979 | 19 ft | 13 kts | 245° |
| 2026-05-01 09:18 | 41.29868 | 2.08868 | 20 ft | 13 kts | 245° |
| 2026-05-01 09:18 | 41.29782 | 2.08612 | 17 ft | 17 kts | 246° |
| 2026-05-01 09:19 | 41.29682 | 2.08327 | 17 ft | 17 kts | 245° |
| 2026-05-01 09:19 | 41.29634 | 2.08186 | 19 ft | 15 kts | 245° |
| 2026-05-01 09:19 | 41.29589 | 2.08054 | 19 ft | 15 kts | 245° |
| 2026-05-01 09:20 | 41.29469 | 2.07968 | 16 ft | 8 kts | 156° |
| 2026-05-01 09:20 | 41.29373 | 2.08026 | 17 ft | 7 kts | 155° |
| 2026-05-01 09:21 | 41.29286 | 2.08069 | 19 ft | 7 kts | 164° |
| 2026-05-01 09:21 | 41.29246 | 2.08092 | 19 ft | 5 kts | 155° |
| 2026-05-01 09:21 | 41.29207 | 2.08116 | 20 ft | 0 kts | 155° |
| 2026-05-01 09:24 | 41.29206 | 2.08116 | 19 ft | 0 kts | 155° |